sensor_id;sensor_type;location;lat;lon;timestamp;P1;durP1;ratioP1;P2;durP2;ratioP2
6269;SDS011;3168;51.684;6.954;2024-02-15T00:00:32;9.60;;;7.10;;
6269;SDS011;3168;51.684;6.954;2024-02-15T00:02:58;8.60;;;7.53;;
6269;SDS011;3168;51.684;6.954;2024-02-15T00:05:25;7.40;;;6.73;;
6269;SDS011;3168;51.684;6.954;2024-02-15T00:07:51;9.17;;;8.37;;
6269;SDS011;3168;51.684;6.954;2024-02-15T00:10:17;12.13;;;9.00;;
6269;SDS011;3168;51.684;6.954;2024-02-15T00:12:42;10.87;;;8.13;;
6269;SDS011;3168;51.684;6.954;2024-02-15T00:15:09;7.33;;;6.83;;
6269;SDS011;3168;51.684;6.954;2024-02-15T00:17:34;7.60;;;6.90;;
6269;SDS011;3168;51.684;6.954;2024-02-15T00:20:01;8.53;;;7.73;;
6269;SDS011;3168;51.684;6.954;2024-02-15T00:22:26;7.73;;;7.07;;
6269;SDS011;3168;51.684;6.954;2024-02-15T00:24:52;9.10;;;7.67;;
6269;SDS011;3168;51.684;6.954;2024-02-15T00:27:18;8.27;;;6.73;;
6269;SDS011;3168;51.684;6.954;2024-02-15T00:29:44;7.73;;;7.10;;
6269;SDS011;3168;51.684;6.954;2024-02-15T00:32:10;7.80;;;7.00;;
6269;SDS011;3168;51.684;6.954;2024-02-15T00:34:36;14.43;;;8.53;;
6269;SDS011;3168;51.684;6.954;2024-02-15T00:37:02;12.03;;;7.30;;
6269;SDS011;3168;51.684;6.954;2024-02-15T00:39:28;7.50;;;6.80;;
6269;SDS011;3168;51.684;6.954;2024-02-15T00:41:55;8.37;;;7.50;;
6269;SDS011;3168;51.684;6.954;2024-02-15T00:44:21;6.53;;;6.00;;
6269;SDS011;3168;51.684;6.954;2024-02-15T00:46:47;8.53;;;7.73;;
6269;SDS011;3168;51.684;6.954;2024-02-15T00:49:13;9.33;;;8.53;;
6269;SDS011;3168;51.684;6.954;2024-02-15T00:51:39;6.40;;;6.00;;
6269;SDS011;3168;51.684;6.954;2024-02-15T00:54:05;10.60;;;8.53;;
6269;SDS011;3168;51.684;6.954;2024-02-15T00:56:31;9.00;;;8.20;;
6269;SDS011;3168;51.684;6.954;2024-02-15T00:58:58;8.53;;;7.83;;
6269;SDS011;3168;51.684;6.954;2024-02-15T01:01:23;7.80;;;7.03;;
6269;SDS011;3168;51.684;6.954;2024-02-15T01:03:49;11.13;;;7.50;;
6269;SDS011;3168;51.684;6.954;2024-02-15T01:06:14;12.53;;;7.97;;
6269;SDS011;3168;51.684;6.954;2024-02-15T01:08:40;7.20;;;6.70;;
6269;SDS011;3168;51.684;6.954;2024-02-15T01:11:06;8.57;;;7.27;;
6269;SDS011;3168;51.684;6.954;2024-02-15T01:13:32;8.43;;;7.70;;
6269;SDS011;3168;51.684;6.954;2024-02-15T01:15:59;11.77;;;7.77;;
6269;SDS011;3168;51.684;6.954;2024-02-15T01:18:25;8.40;;;7.60;;
6269;SDS011;3168;51.684;6.954;2024-02-15T01:20:51;8.50;;;7.80;;
6269;SDS011;3168;51.684;6.954;2024-02-15T01:23:17;7.93;;;7.27;;
6269;SDS011;3168;51.684;6.954;2024-02-15T01:25:42;9.60;;;8.77;;
6269;SDS011;3168;51.684;6.954;2024-02-15T01:28:08;10.73;;;9.83;;
6269;SDS011;3168;51.684;6.954;2024-02-15T01:30:34;11.30;;;8.43;;
6269;SDS011;3168;51.684;6.954;2024-02-15T01:33:00;9.40;;;8.53;;
6269;SDS011;3168;51.684;6.954;2024-02-15T01:35:27;10.23;;;9.23;;
6269;SDS011;3168;51.684;6.954;2024-02-15T01:37:52;14.60;;;8.53;;
6269;SDS011;3168;51.684;6.954;2024-02-15T01:40:18;8.90;;;8.07;;
6269;SDS011;3168;51.684;6.954;2024-02-15T01:42:44;16.07;;;9.00;;
6269;SDS011;3168;51.684;6.954;2024-02-15T01:45:09;19.43;;;7.70;;
6269;SDS011;3168;51.684;6.954;2024-02-15T01:47:35;16.60;;;9.00;;
6269;SDS011;3168;51.684;6.954;2024-02-15T01:50:01;8.63;;;7.83;;
6269;SDS011;3168;51.684;6.954;2024-02-15T01:52:27;13.60;;;8.30;;
6269;SDS011;3168;51.684;6.954;2024-02-15T01:54:53;9.70;;;8.60;;
6269;SDS011;3168;51.684;6.954;2024-02-15T01:57:19;10.83;;;7.37;;
6269;SDS011;3168;51.684;6.954;2024-02-15T01:59:45;7.80;;;7.00;;
6269;SDS011;3168;51.684;6.954;2024-02-15T02:02:11;7.90;;;7.27;;
6269;SDS011;3168;51.684;6.954;2024-02-15T02:04:37;6.80;;;6.20;;
6269;SDS011;3168;51.684;6.954;2024-02-15T02:07:02;8.13;;;7.33;;
6269;SDS011;3168;51.684;6.954;2024-02-15T02:09:28;16.83;;;7.20;;
6269;SDS011;3168;51.684;6.954;2024-02-15T02:11:54;10.87;;;8.53;;
6269;SDS011;3168;51.684;6.954;2024-02-15T02:14:20;19.70;;;8.40;;
6269;SDS011;3168;51.684;6.954;2024-02-15T02:16:47;10.37;;;9.43;;
6269;SDS011;3168;51.684;6.954;2024-02-15T02:19:12;11.23;;;9.70;;
6269;SDS011;3168;51.684;6.954;2024-02-15T02:21:38;12.90;;;10.23;;
6269;SDS011;3168;51.684;6.954;2024-02-15T02:24:04;28.10;;;12.50;;
6269;SDS011;3168;51.684;6.954;2024-02-15T02:26:31;14.23;;;10.90;;
6269;SDS011;3168;51.684;6.954;2024-02-15T02:28:57;24.70;;;10.97;;
6269;SDS011;3168;51.684;6.954;2024-02-15T02:31:22;15.13;;;11.13;;
6269;SDS011;3168;51.684;6.954;2024-02-15T02:33:49;11.53;;;10.40;;
6269;SDS011;3168;51.684;6.954;2024-02-15T02:36:14;15.70;;;9.63;;
6269;SDS011;3168;51.684;6.954;2024-02-15T02:38:40;14.90;;;9.73;;
6269;SDS011;3168;51.684;6.954;2024-02-15T02:41:06;19.70;;;11.13;;
6269;SDS011;3168;51.684;6.954;2024-02-15T02:43:32;10.17;;;8.70;;
6269;SDS011;3168;51.684;6.954;2024-02-15T02:45:58;9.40;;;8.37;;
6269;SDS011;3168;51.684;6.954;2024-02-15T02:48:24;15.00;;;8.15;;
6269;SDS011;3168;51.684;6.954;2024-02-15T02:50:50;10.60;;;8.10;;
6269;SDS011;3168;51.684;6.954;2024-02-15T02:53:15;10.77;;;8.50;;
6269;SDS011;3168;51.684;6.954;2024-02-15T02:55:41;9.70;;;8.70;;
6269;SDS011;3168;51.684;6.954;2024-02-15T02:58:07;15.20;;;7.03;;
6269;SDS011;3168;51.684;6.954;2024-02-15T03:00:33;8.93;;;8.10;;
6269;SDS011;3168;51.684;6.954;2024-02-15T03:03:00;13.47;;;8.73;;
6269;SDS011;3168;51.684;6.954;2024-02-15T03:05:26;7.83;;;7.03;;
6269;SDS011;3168;51.684;6.954;2024-02-15T03:07:51;12.53;;;7.97;;
6269;SDS011;3168;51.684;6.954;2024-02-15T03:10:17;8.90;;;7.47;;
6269;SDS011;3168;51.684;6.954;2024-02-15T03:12:43;12.57;;;7.20;;
6269;SDS011;3168;51.684;6.954;2024-02-15T03:15:09;7.37;;;6.67;;
6269;SDS011;3168;51.684;6.954;2024-02-15T03:17:37;9.10;;;7.40;;
6269;SDS011;3168;51.684;6.954;2024-02-15T03:20:03;12.33;;;7.73;;
6269;SDS011;3168;51.684;6.954;2024-02-15T03:22:31;8.10;;;7.30;;
6269;SDS011;3168;51.684;6.954;2024-02-15T03:24:57;10.77;;;7.17;;
6269;SDS011;3168;51.684;6.954;2024-02-15T03:27:23;11.93;;;7.13;;
6269;SDS011;3168;51.684;6.954;2024-02-15T03:29:49;11.93;;;7.47;;
6269;SDS011;3168;51.684;6.954;2024-02-15T03:32:15;9.73;;;7.40;;
6269;SDS011;3168;51.684;6.954;2024-02-15T03:34:41;12.83;;;7.20;;
6269;SDS011;3168;51.684;6.954;2024-02-15T03:37:07;10.33;;;6.70;;
6269;SDS011;3168;51.684;6.954;2024-02-15T03:39:32;6.83;;;6.13;;
6269;SDS011;3168;51.684;6.954;2024-02-15T03:41:58;15.90;;;7.30;;
6269;SDS011;3168;51.684;6.954;2024-02-15T03:44:24;6.30;;;5.77;;
6269;SDS011;3168;51.684;6.954;2024-02-15T03:46:50;9.10;;;6.13;;
6269;SDS011;3168;51.684;6.954;2024-02-15T03:49:18;9.27;;;7.07;;
6269;SDS011;3168;51.684;6.954;2024-02-15T03:51:44;8.70;;;6.40;;
6269;SDS011;3168;51.684;6.954;2024-02-15T03:54:11;11.43;;;7.30;;
6269;SDS011;3168;51.684;6.954;2024-02-15T03:59:14;9.00;;;5.70;;
6269;SDS011;3168;51.684;6.954;2024-02-15T04:01:40;7.20;;;5.80;;
6269;SDS011;3168;51.684;6.954;2024-02-15T04:04:05;5.40;;;4.90;;
6269;SDS011;3168;51.684;6.954;2024-02-15T04:06:31;5.33;;;4.30;;
6269;SDS011;3168;51.684;6.954;2024-02-15T04:08:57;5.70;;;5.20;;
6269;SDS011;3168;51.684;6.954;2024-02-15T04:11:23;17.33;;;5.80;;
6269;SDS011;3168;51.684;6.954;2024-02-15T04:13:49;15.93;;;5.73;;
6269;SDS011;3168;51.684;6.954;2024-02-15T04:16:15;6.93;;;4.30;;
6269;SDS011;3168;51.684;6.954;2024-02-15T04:18:41;4.90;;;4.60;;
6269;SDS011;3168;51.684;6.954;2024-02-15T04:21:07;7.60;;;4.27;;
6269;SDS011;3168;51.684;6.954;2024-02-15T04:23:33;4.90;;;4.27;;
6269;SDS011;3168;51.684;6.954;2024-02-15T04:25:59;8.67;;;4.77;;
6269;SDS011;3168;51.684;6.954;2024-02-15T04:28:25;7.80;;;4.53;;
6269;SDS011;3168;51.684;6.954;2024-02-15T04:30:50;20.70;;;6.07;;
6269;SDS011;3168;51.684;6.954;2024-02-15T04:33:16;4.60;;;4.20;;
6269;SDS011;3168;51.684;6.954;2024-02-15T04:35:42;10.73;;;4.40;;
6269;SDS011;3168;51.684;6.954;2024-02-15T04:38:08;5.87;;;4.33;;
6269;SDS011;3168;51.684;6.954;2024-02-15T04:40:34;4.87;;;4.23;;
6269;SDS011;3168;51.684;6.954;2024-02-15T04:43:00;3.50;;;3.30;;
6269;SDS011;3168;51.684;6.954;2024-02-15T04:45:26;4.60;;;4.20;;
6269;SDS011;3168;51.684;6.954;2024-02-15T04:47:51;5.10;;;4.20;;
6269;SDS011;3168;51.684;6.954;2024-02-15T04:50:17;3.93;;;3.60;;
6269;SDS011;3168;51.684;6.954;2024-02-15T04:52:44;20.77;;;4.53;;
6269;SDS011;3168;51.684;6.954;2024-02-15T04:55:10;4.10;;;3.90;;
6269;SDS011;3168;51.684;6.954;2024-02-15T04:57:36;7.70;;;3.90;;
6269;SDS011;3168;51.684;6.954;2024-02-15T05:00:02;3.17;;;3.07;;
6269;SDS011;3168;51.684;6.954;2024-02-15T05:02:29;3.83;;;3.63;;
6269;SDS011;3168;51.684;6.954;2024-02-15T05:04:55;15.60;;;5.00;;
6269;SDS011;3168;51.684;6.954;2024-02-15T05:07:21;5.50;;;3.37;;
6269;SDS011;3168;51.684;6.954;2024-02-15T05:09:47;4.37;;;3.97;;
6269;SDS011;3168;51.684;6.954;2024-02-15T05:12:12;3.43;;;3.20;;
6269;SDS011;3168;51.684;6.954;2024-02-15T05:14:38;5.13;;;2.93;;
6269;SDS011;3168;51.684;6.954;2024-02-15T05:17:04;11.63;;;3.60;;
6269;SDS011;3168;51.684;6.954;2024-02-15T05:19:30;3.57;;;3.33;;
6269;SDS011;3168;51.684;6.954;2024-02-15T05:21:56;7.73;;;3.80;;
6269;SDS011;3168;51.684;6.954;2024-02-15T05:24:22;5.60;;;3.20;;
6269;SDS011;3168;51.684;6.954;2024-02-15T05:26:47;8.97;;;3.60;;
6269;SDS011;3168;51.684;6.954;2024-02-15T05:29:14;3.03;;;2.83;;
6269;SDS011;3168;51.684;6.954;2024-02-15T05:31:40;6.10;;;2.53;;
6269;SDS011;3168;51.684;6.954;2024-02-15T05:34:06;4.63;;;2.60;;
6269;SDS011;3168;51.684;6.954;2024-02-15T05:36:32;3.00;;;2.47;;
6269;SDS011;3168;51.684;6.954;2024-02-15T05:38:57;8.37;;;3.47;;
6269;SDS011;3168;51.684;6.954;2024-02-15T05:41:23;6.20;;;2.90;;
6269;SDS011;3168;51.684;6.954;2024-02-15T05:43:49;5.27;;;2.60;;
6269;SDS011;3168;51.684;6.954;2024-02-15T05:46:15;2.93;;;2.63;;
6269;SDS011;3168;51.684;6.954;2024-02-15T05:48:42;10.20;;;2.17;;
6269;SDS011;3168;51.684;6.954;2024-02-15T05:51:08;2.60;;;2.27;;
6269;SDS011;3168;51.684;6.954;2024-02-15T05:53:34;5.97;;;3.33;;
6269;SDS011;3168;51.684;6.954;2024-02-15T05:56:02;3.23;;;3.10;;
6269;SDS011;3168;51.684;6.954;2024-02-15T05:58:28;3.27;;;2.07;;
6269;SDS011;3168;51.684;6.954;2024-02-15T06:00:54;2.77;;;2.53;;
6269;SDS011;3168;51.684;6.954;2024-02-15T06:03:21;2.87;;;2.77;;
6269;SDS011;3168;51.684;6.954;2024-02-15T06:05:48;3.27;;;2.97;;
6269;SDS011;3168;51.684;6.954;2024-02-15T06:08:13;3.97;;;2.53;;
6269;SDS011;3168;51.684;6.954;2024-02-15T06:10:39;1.80;;;1.70;;
6269;SDS011;3168;51.684;6.954;2024-02-15T06:13:05;4.97;;;2.93;;
6269;SDS011;3168;51.684;6.954;2024-02-15T06:15:31;2.37;;;2.27;;
6269;SDS011;3168;51.684;6.954;2024-02-15T06:17:57;2.10;;;2.00;;
6269;SDS011;3168;51.684;6.954;2024-02-15T06:20:23;11.10;;;2.50;;
6269;SDS011;3168;51.684;6.954;2024-02-15T06:22:49;2.03;;;1.80;;
6269;SDS011;3168;51.684;6.954;2024-02-15T06:25:14;4.90;;;2.03;;
6269;SDS011;3168;51.684;6.954;2024-02-15T06:27:40;9.07;;;2.90;;
6269;SDS011;3168;51.684;6.954;2024-02-15T06:30:07;4.00;;;2.73;;
6269;SDS011;3168;51.684;6.954;2024-02-15T06:32:39;2.50;;;2.03;;
6269;SDS011;3168;51.684;6.954;2024-02-15T06:35:11;4.07;;;2.90;;
6269;SDS011;3168;51.684;6.954;2024-02-15T06:37:43;1.90;;;1.90;;
6269;SDS011;3168;51.684;6.954;2024-02-15T06:40:15;13.00;;;1.60;;
6269;SDS011;3168;51.684;6.954;2024-02-15T06:42:41;21.63;;;2.73;;
6269;SDS011;3168;51.684;6.954;2024-02-15T06:45:07;2.70;;;2.57;;
6269;SDS011;3168;51.684;6.954;2024-02-15T06:47:33;2.67;;;1.77;;
6269;SDS011;3168;51.684;6.954;2024-02-15T06:49:59;2.00;;;1.90;;
6269;SDS011;3168;51.684;6.954;2024-02-15T06:52:25;6.00;;;2.23;;
6269;SDS011;3168;51.684;6.954;2024-02-15T06:54:51;4.73;;;1.97;;
6269;SDS011;3168;51.684;6.954;2024-02-15T06:57:16;2.63;;;2.40;;
6269;SDS011;3168;51.684;6.954;2024-02-15T06:59:45;3.00;;;2.80;;
6269;SDS011;3168;51.684;6.954;2024-02-15T07:02:08;2.67;;;2.57;;
6269;SDS011;3168;51.684;6.954;2024-02-15T07:04:35;2.07;;;1.97;;
6269;SDS011;3168;51.684;6.954;2024-02-15T07:07:01;2.60;;;2.50;;
6269;SDS011;3168;51.684;6.954;2024-02-15T07:09:27;1.80;;;1.80;;
6269;SDS011;3168;51.684;6.954;2024-02-15T07:11:52;6.97;;;2.30;;
6269;SDS011;3168;51.684;6.954;2024-02-15T07:14:18;3.67;;;2.20;;
6269;SDS011;3168;51.684;6.954;2024-02-15T07:16:45;2.67;;;2.47;;
6269;SDS011;3168;51.684;6.954;2024-02-15T07:19:11;5.40;;;2.07;;
6269;SDS011;3168;51.684;6.954;2024-02-15T07:21:37;7.70;;;2.30;;
6269;SDS011;3168;51.684;6.954;2024-02-15T07:24:03;2.80;;;2.33;;
6269;SDS011;3168;51.684;6.954;2024-02-15T07:26:30;1.87;;;1.77;;
6269;SDS011;3168;51.684;6.954;2024-02-15T07:28:56;3.57;;;1.90;;
6269;SDS011;3168;51.684;6.954;2024-02-15T07:31:22;2.50;;;2.23;;
6269;SDS011;3168;51.684;6.954;2024-02-15T07:33:48;4.20;;;2.30;;
6269;SDS011;3168;51.684;6.954;2024-02-15T07:36:17;3.00;;;2.80;;
6269;SDS011;3168;51.684;6.954;2024-02-15T07:38:49;5.40;;;4.90;;
6269;SDS011;3168;51.684;6.954;2024-02-15T07:41:18;4.53;;;3.37;;
6269;SDS011;3168;51.684;6.954;2024-02-15T07:43:43;3.63;;;3.33;;
6269;SDS011;3168;51.684;6.954;2024-02-15T07:46:12;2.00;;;1.90;;
6269;SDS011;3168;51.684;6.954;2024-02-15T07:48:37;5.77;;;2.77;;
6269;SDS011;3168;51.684;6.954;2024-02-15T07:51:03;3.37;;;3.07;;
6269;SDS011;3168;51.684;6.954;2024-02-15T07:53:29;2.27;;;2.17;;
6269;SDS011;3168;51.684;6.954;2024-02-15T07:55:55;1.90;;;1.90;;
6269;SDS011;3168;51.684;6.954;2024-02-15T07:58:21;3.73;;;2.47;;
6269;SDS011;3168;51.684;6.954;2024-02-15T08:00:47;6.77;;;2.67;;
6269;SDS011;3168;51.684;6.954;2024-02-15T08:03:13;1.77;;;1.70;;
6269;SDS011;3168;51.684;6.954;2024-02-15T08:05:40;2.43;;;2.33;;
6269;SDS011;3168;51.684;6.954;2024-02-15T08:08:05;4.57;;;2.43;;
6269;SDS011;3168;51.684;6.954;2024-02-15T08:10:31;4.07;;;2.57;;
6269;SDS011;3168;51.684;6.954;2024-02-15T08:12:57;4.10;;;2.50;;
6269;SDS011;3168;51.684;6.954;2024-02-15T08:15:23;6.50;;;2.80;;
6269;SDS011;3168;51.684;6.954;2024-02-15T08:17:50;2.47;;;2.37;;
6269;SDS011;3168;51.684;6.954;2024-02-15T08:20:17;1.83;;;1.73;;
6269;SDS011;3168;51.684;6.954;2024-02-15T08:22:42;2.60;;;2.50;;
6269;SDS011;3168;51.684;6.954;2024-02-15T08:25:09;7.67;;;3.30;;
6269;SDS011;3168;51.684;6.954;2024-02-15T08:27:34;3.37;;;2.40;;
6269;SDS011;3168;51.684;6.954;2024-02-15T08:30:00;3.80;;;2.80;;
6269;SDS011;3168;51.684;6.954;2024-02-15T08:32:26;2.70;;;2.50;;
6269;SDS011;3168;51.684;6.954;2024-02-15T08:34:52;6.90;;;3.20;;
6269;SDS011;3168;51.684;6.954;2024-02-15T08:37:20;7.37;;;3.73;;
6269;SDS011;3168;51.684;6.954;2024-02-15T08:39:46;5.97;;;4.67;;
6269;SDS011;3168;51.684;6.954;2024-02-15T08:42:12;15.43;;;5.03;;
6269;SDS011;3168;51.684;6.954;2024-02-15T08:44:38;4.47;;;4.10;;
6269;SDS011;3168;51.684;6.954;2024-02-15T08:47:05;2.93;;;2.73;;
6269;SDS011;3168;51.684;6.954;2024-02-15T08:49:30;2.50;;;2.40;;
6269;SDS011;3168;51.684;6.954;2024-02-15T08:51:56;5.03;;;4.07;;
6269;SDS011;3168;51.684;6.954;2024-02-15T08:54:22;2.47;;;2.17;;
6269;SDS011;3168;51.684;6.954;2024-02-15T08:56:48;2.50;;;2.40;;
6269;SDS011;3168;51.684;6.954;2024-02-15T08:59:14;4.70;;;2.50;;
6269;SDS011;3168;51.684;6.954;2024-02-15T09:01:40;2.40;;;2.30;;
6269;SDS011;3168;51.684;6.954;2024-02-15T09:04:16;3.00;;;1.90;;
6269;SDS011;3168;51.684;6.954;2024-02-15T09:06:44;2.50;;;2.40;;
6269;SDS011;3168;51.684;6.954;2024-02-15T09:09:11;2.43;;;2.33;;
6269;SDS011;3168;51.684;6.954;2024-02-15T09:11:39;5.40;;;2.40;;
6269;SDS011;3168;51.684;6.954;2024-02-15T09:14:09;2.10;;;2.00;;
6269;SDS011;3168;51.684;6.954;2024-02-15T09:16:36;4.83;;;2.70;;
6269;SDS011;3168;51.684;6.954;2024-02-15T09:19:02;2.67;;;2.57;;
6269;SDS011;3168;51.684;6.954;2024-02-15T09:21:28;2.83;;;2.73;;
6269;SDS011;3168;51.684;6.954;2024-02-15T09:23:54;2.57;;;2.40;;
6269;SDS011;3168;51.684;6.954;2024-02-15T09:26:20;2.73;;;2.50;;
6269;SDS011;3168;51.684;6.954;2024-02-15T09:28:46;3.03;;;2.53;;
6269;SDS011;3168;51.684;6.954;2024-02-15T09:31:12;5.27;;;2.63;;
6269;SDS011;3168;51.684;6.954;2024-02-15T09:33:37;5.00;;;2.53;;
6269;SDS011;3168;51.684;6.954;2024-02-15T09:36:03;7.50;;;2.80;;
6269;SDS011;3168;51.684;6.954;2024-02-15T09:38:30;1.70;;;1.60;;
6269;SDS011;3168;51.684;6.954;2024-02-15T09:40:56;4.20;;;2.80;;
6269;SDS011;3168;51.684;6.954;2024-02-15T09:43:22;5.57;;;2.63;;
6269;SDS011;3168;51.684;6.954;2024-02-15T09:45:48;3.27;;;2.93;;
6269;SDS011;3168;51.684;6.954;2024-02-15T09:48:15;2.67;;;2.57;;
6269;SDS011;3168;51.684;6.954;2024-02-15T09:50:41;2.90;;;2.30;;
6269;SDS011;3168;51.684;6.954;2024-02-15T09:53:18;2.80;;;2.23;;
6269;SDS011;3168;51.684;6.954;2024-02-15T09:55:46;3.57;;;1.70;;
6269;SDS011;3168;51.684;6.954;2024-02-15T09:58:12;2.00;;;1.80;;
6269;SDS011;3168;51.684;6.954;2024-02-15T10:00:38;3.00;;;2.80;;
6269;SDS011;3168;51.684;6.954;2024-02-15T10:03:06;12.53;;;6.50;;
6269;SDS011;3168;51.684;6.954;2024-02-15T10:05:34;6.03;;;4.90;;
6269;SDS011;3168;51.684;6.954;2024-02-15T10:08:01;6.17;;;5.60;;
6269;SDS011;3168;51.684;6.954;2024-02-15T10:10:27;21.17;;;5.87;;
6269;SDS011;3168;51.684;6.954;2024-02-15T10:12:53;14.20;;;5.30;;
6269;SDS011;3168;51.684;6.954;2024-02-15T10:17:54;9.93;;;7.70;;
6269;SDS011;3168;51.684;6.954;2024-02-15T10:20:20;6.20;;;5.63;;
6269;SDS011;3168;51.684;6.954;2024-02-15T10:22:46;4.53;;;4.13;;
6269;SDS011;3168;51.684;6.954;2024-02-15T10:25:12;4.40;;;4.10;;
6269;SDS011;3168;51.684;6.954;2024-02-15T10:27:38;5.43;;;4.60;;
6269;SDS011;3168;51.684;6.954;2024-02-15T10:30:14;14.07;;;4.60;;
6269;SDS011;3168;51.684;6.954;2024-02-15T10:32:40;4.53;;;4.20;;
6269;SDS011;3168;51.684;6.954;2024-02-15T10:35:07;5.47;;;5.17;;
6269;SDS011;3168;51.684;6.954;2024-02-15T10:37:33;8.33;;;3.80;;
6269;SDS011;3168;51.684;6.954;2024-02-15T10:40:07;8.33;;;2.70;;
6269;SDS011;3168;51.684;6.954;2024-02-15T10:42:33;5.50;;;2.77;;
6269;SDS011;3168;51.684;6.954;2024-02-15T10:45:02;3.67;;;3.43;;
6269;SDS011;3168;51.684;6.954;2024-02-15T10:47:28;7.13;;;2.90;;
6269;SDS011;3168;51.684;6.954;2024-02-15T10:49:53;5.23;;;2.50;;
6269;SDS011;3168;51.684;6.954;2024-02-15T10:52:19;6.45;;;2.17;;
6269;SDS011;3168;51.684;6.954;2024-02-15T10:54:47;4.00;;;1.40;;
6269;SDS011;3168;51.684;6.954;2024-02-15T10:57:13;1.53;;;1.43;;
6269;SDS011;3168;51.684;6.954;2024-02-15T10:59:38;2.10;;;1.87;;
6269;SDS011;3168;51.684;6.954;2024-02-15T11:02:27;6.30;;;1.80;;
6269;SDS011;3168;51.684;6.954;2024-02-15T11:04:45;2.60;;;1.60;;
6269;SDS011;3168;51.684;6.954;2024-02-15T11:07:12;2.40;;;1.80;;
6269;SDS011;3168;51.684;6.954;2024-02-15T11:09:38;5.50;;;1.90;;
6269;SDS011;3168;51.684;6.954;2024-02-15T11:12:05;1.57;;;1.57;;
6269;SDS011;3168;51.684;6.954;2024-02-15T11:14:31;2.60;;;1.60;;
6269;SDS011;3168;51.684;6.954;2024-02-15T11:16:56;1.40;;;1.40;;
6269;SDS011;3168;51.684;6.954;2024-02-15T11:22:14;2.80;;;1.77;;
6269;SDS011;3168;51.684;6.954;2024-02-15T11:24:45;9.03;;;2.33;;
6269;SDS011;3168;51.684;6.954;2024-02-15T11:27:07;1.10;;;1.10;;
6269;SDS011;3168;51.684;6.954;2024-02-15T11:32:23;2.27;;;2.17;;
6269;SDS011;3168;51.684;6.954;2024-02-15T11:34:41;5.03;;;2.50;;
6269;SDS011;3168;51.684;6.954;2024-02-15T11:37:07;1.70;;;1.63;;
6269;SDS011;3168;51.684;6.954;2024-02-15T11:44:38;1.57;;;1.57;;
6269;SDS011;3168;51.684;6.954;2024-02-15T11:47:04;4.60;;;2.70;;
6269;SDS011;3168;51.684;6.954;2024-02-15T11:49:30;2.43;;;2.33;;
6269;SDS011;3168;51.684;6.954;2024-02-15T11:51:56;2.27;;;2.07;;
6269;SDS011;3168;51.684;6.954;2024-02-15T11:54:22;2.17;;;2.03;;
6269;SDS011;3168;51.684;6.954;2024-02-15T11:56:49;1.97;;;1.87;;
6269;SDS011;3168;51.684;6.954;2024-02-15T11:59:17;3.00;;;2.90;;
6269;SDS011;3168;51.684;6.954;2024-02-15T12:01:44;3.10;;;3.00;;
6269;SDS011;3168;51.684;6.954;2024-02-15T12:04:16;1.47;;;1.47;;
6269;SDS011;3168;51.684;6.954;2024-02-15T12:06:48;3.13;;;2.77;;
6269;SDS011;3168;51.684;6.954;2024-02-15T12:09:20;4.87;;;3.33;;
6269;SDS011;3168;51.684;6.954;2024-02-15T12:11:57;1.23;;;1.10;;
6269;SDS011;3168;51.684;6.954;2024-02-15T12:14:29;5.07;;;1.53;;
6269;SDS011;3168;51.684;6.954;2024-02-15T12:17:03;1.60;;;1.00;;
6269;SDS011;3168;51.684;6.954;2024-02-15T12:19:34;3.53;;;1.07;;
6269;SDS011;3168;51.684;6.954;2024-02-15T12:22:00;2.00;;;1.90;;
6269;SDS011;3168;51.684;6.954;2024-02-15T12:24:26;2.80;;;1.93;;
6269;SDS011;3168;51.684;6.954;2024-02-15T12:26:59;2.50;;;1.83;;
6269;SDS011;3168;51.684;6.954;2024-02-15T12:29:18;2.90;;;1.93;;
6269;SDS011;3168;51.684;6.954;2024-02-15T12:31:44;1.77;;;1.67;;
6269;SDS011;3168;51.684;6.954;2024-02-15T12:34:09;1.40;;;1.40;;
6269;SDS011;3168;51.684;6.954;2024-02-15T12:36:36;5.97;;;2.20;;
6269;SDS011;3168;51.684;6.954;2024-02-15T12:39:02;1.53;;;1.43;;
6269;SDS011;3168;51.684;6.954;2024-02-15T12:41:28;2.57;;;2.40;;
6269;SDS011;3168;51.684;6.954;2024-02-15T12:43:54;4.10;;;1.97;;
6269;SDS011;3168;51.684;6.954;2024-02-15T12:46:20;1.37;;;1.27;;
6269;SDS011;3168;51.684;6.954;2024-02-15T12:48:46;1.50;;;1.40;;
6269;SDS011;3168;51.684;6.954;2024-02-15T12:51:13;1.23;;;1.13;;
6269;SDS011;3168;51.684;6.954;2024-02-15T12:53:39;1.43;;;1.30;;
6269;SDS011;3168;51.684;6.954;2024-02-15T12:56:05;7.63;;;2.83;;
6269;SDS011;3168;51.684;6.954;2024-02-15T12:58:31;1.30;;;1.27;;
6269;SDS011;3168;51.684;6.954;2024-02-15T13:00:56;2.33;;;1.43;;
6269;SDS011;3168;51.684;6.954;2024-02-15T13:03:22;0.97;;;0.97;;
6269;SDS011;3168;51.684;6.954;2024-02-15T13:05:48;1.20;;;1.20;;
6269;SDS011;3168;51.684;6.954;2024-02-15T13:08:15;18.87;;;2.43;;
6269;SDS011;3168;51.684;6.954;2024-02-15T13:10:41;3.20;;;1.07;;
6269;SDS011;3168;51.684;6.954;2024-02-15T13:13:07;1.27;;;1.27;;
6269;SDS011;3168;51.684;6.954;2024-02-15T13:15:33;2.53;;;1.67;;
6269;SDS011;3168;51.684;6.954;2024-02-15T13:17:59;2.10;;;1.20;;
6269;SDS011;3168;51.684;6.954;2024-02-15T13:20:25;1.50;;;1.40;;
6269;SDS011;3168;51.684;6.954;2024-02-15T13:22:56;2.03;;;1.93;;
6269;SDS011;3168;51.684;6.954;2024-02-15T13:25:22;1.53;;;1.33;;
6269;SDS011;3168;51.684;6.954;2024-02-15T13:27:48;1.37;;;1.27;;
6269;SDS011;3168;51.684;6.954;2024-02-15T13:30:14;3.47;;;1.27;;
6269;SDS011;3168;51.684;6.954;2024-02-15T13:32:40;1.63;;;1.53;;
6269;SDS011;3168;51.684;6.954;2024-02-15T13:35:07;2.47;;;1.17;;
6269;SDS011;3168;51.684;6.954;2024-02-15T13:37:33;2.50;;;1.43;;
6269;SDS011;3168;51.684;6.954;2024-02-15T13:39:59;3.90;;;1.17;;
6269;SDS011;3168;51.684;6.954;2024-02-15T13:42:25;9.80;;;1.53;;
6269;SDS011;3168;51.684;6.954;2024-02-15T13:44:51;1.77;;;1.67;;
6269;SDS011;3168;51.684;6.954;2024-02-15T13:47:18;1.10;;;1.10;;
6269;SDS011;3168;51.684;6.954;2024-02-15T13:49:44;1.57;;;1.43;;
6269;SDS011;3168;51.684;6.954;2024-02-15T13:52:09;1.00;;;1.00;;
6269;SDS011;3168;51.684;6.954;2024-02-15T13:54:35;1.77;;;1.00;;
6269;SDS011;3168;51.684;6.954;2024-02-15T13:57:01;0.87;;;0.87;;
6269;SDS011;3168;51.684;6.954;2024-02-15T13:59:28;0.90;;;0.90;;
6269;SDS011;3168;51.684;6.954;2024-02-15T14:01:53;2.60;;;2.40;;
6269;SDS011;3168;51.684;6.954;2024-02-15T14:04:19;3.40;;;2.30;;
6269;SDS011;3168;51.684;6.954;2024-02-15T14:06:45;16.83;;;2.73;;
6269;SDS011;3168;51.684;6.954;2024-02-15T14:09:11;2.43;;;2.33;;
6269;SDS011;3168;51.684;6.954;2024-02-15T14:11:37;1.83;;;1.80;;
6269;SDS011;3168;51.684;6.954;2024-02-15T14:14:04;4.73;;;1.60;;
6269;SDS011;3168;51.684;6.954;2024-02-15T14:16:29;5.10;;;1.90;;
6269;SDS011;3168;51.684;6.954;2024-02-15T14:18:55;1.00;;;1.00;;
6269;SDS011;3168;51.684;6.954;2024-02-15T14:21:21;2.60;;;1.63;;
6269;SDS011;3168;51.684;6.954;2024-02-15T14:23:47;1.93;;;1.83;;
6269;SDS011;3168;51.684;6.954;2024-02-15T14:26:13;4.50;;;3.37;;
6269;SDS011;3168;51.684;6.954;2024-02-15T14:28:39;1.40;;;1.17;;
6269;SDS011;3168;51.684;6.954;2024-02-15T14:31:04;1.30;;;1.20;;
6269;SDS011;3168;51.684;6.954;2024-02-15T14:33:36;1.27;;;1.27;;
6269;SDS011;3168;51.684;6.954;2024-02-15T14:36:03;9.53;;;6.00;;
6269;SDS011;3168;51.684;6.954;2024-02-15T14:38:29;1.20;;;1.20;;
6269;SDS011;3168;51.684;6.954;2024-02-15T14:40:55;0.87;;;0.87;;
6269;SDS011;3168;51.684;6.954;2024-02-15T14:43:23;1.30;;;1.20;;
6269;SDS011;3168;51.684;6.954;2024-02-15T14:45:49;1.27;;;1.00;;
6269;SDS011;3168;51.684;6.954;2024-02-15T14:48:15;1.47;;;1.37;;
6269;SDS011;3168;51.684;6.954;2024-02-15T14:50:41;1.43;;;1.23;;
6269;SDS011;3168;51.684;6.954;2024-02-15T14:53:06;3.73;;;1.43;;
6269;SDS011;3168;51.684;6.954;2024-02-15T14:55:34;1.92;;;1.20;;
6269;SDS011;3168;51.684;6.954;2024-02-15T14:58:00;0.90;;;0.90;;
6269;SDS011;3168;51.684;6.954;2024-02-15T15:00:26;1.97;;;1.63;;
6269;SDS011;3168;51.684;6.954;2024-02-15T15:02:52;1.17;;;1.17;;
6269;SDS011;3168;51.684;6.954;2024-02-15T15:05:17;0.93;;;0.93;;
6269;SDS011;3168;51.684;6.954;2024-02-15T15:07:50;1.27;;;1.27;;
6269;SDS011;3168;51.684;6.954;2024-02-15T15:10:22;2.97;;;1.50;;
6269;SDS011;3168;51.684;6.954;2024-02-15T15:12:53;1.00;;;1.00;;
6269;SDS011;3168;51.684;6.954;2024-02-15T15:15:19;4.67;;;1.63;;
6269;SDS011;3168;51.684;6.954;2024-02-15T15:17:45;4.10;;;1.27;;
6269;SDS011;3168;51.684;6.954;2024-02-15T15:20:11;8.63;;;1.37;;
6269;SDS011;3168;51.684;6.954;2024-02-15T15:22:37;5.50;;;2.17;;